createdAt,value
2022-11-04T00:01:43.272Z,99746.26
2022-11-04T00:04:13.324Z,99746.77
2022-11-04T00:06:41.471Z,99747.95
2022-11-04T00:09:13.229Z,99747.38
2022-11-04T00:11:59.559Z,99741.80
2022-11-04T00:14:31.198Z,99736.77
2022-11-04T00:17:17.879Z,99735.01
2022-11-04T00:20:12.699Z,99736.75
2022-11-04T00:23:00.946Z,99736.62
2022-11-04T00:25:46.952Z,99738.40
2022-11-04T00:28:36.691Z,99740.13
2022-11-04T00:31:26.814Z,99743.77
2022-11-04T00:33:57.542Z,99743.48
2022-11-04T00:36:25.739Z,99740.15
2022-11-04T00:38:53.565Z,99740.90
2022-11-04T00:41:27.743Z,99739.91
2022-11-04T00:44:04.857Z,99738.39
2022-11-04T00:46:33.679Z,99737.09
2022-11-04T00:49:01.552Z,99738.17
2022-11-04T00:51:29.183Z,99733.16
2022-11-04T00:53:57.746Z,99734.52
2022-11-04T00:56:25.468Z,99731.88
2022-11-04T00:58:52.994Z,99728.40
2022-11-04T01:01:21.539Z,99723.85
2022-11-04T01:03:51.932Z,99719.46
2022-11-04T01:06:22.296Z,99713.81
2022-11-04T01:09:00.826Z,99709.87
2022-11-04T01:11:28.950Z,99706.36
2022-11-04T01:13:57.950Z,99707.24
2022-11-04T01:18:55.894Z,99696.88
2022-11-04T01:21:23.458Z,99691.23
2022-11-04T01:23:51.002Z,99686.58
2022-11-04T01:26:22.902Z,99689.07
2022-11-04T01:28:54.100Z,99687.41
2022-11-04T01:31:26.262Z,99680.88
2022-11-04T01:33:55.346Z,99682.20
2022-11-04T01:36:24.069Z,99681.12
2022-11-04T01:38:53.590Z,99678.64
2022-11-04T01:41:27.402Z,99676.69
2022-11-04T01:44:02.145Z,99670.55
2022-11-04T01:46:53.496Z,99663.48
2022-11-04T01:49:32.945Z,99659.53
2022-11-04T01:52:14.420Z,99658.69
2022-11-04T01:54:47.178Z,99651.91
2022-11-04T01:57:24.740Z,99651.39
2022-11-04T01:59:53.024Z,99649.46
2022-11-04T02:02:25.592Z,99649.20
2022-11-04T02:04:53.403Z,99645.89
2022-11-04T02:07:21.369Z,99645.31
2022-11-04T02:09:48.933Z,99644.85
2022-11-04T02:12:35.051Z,99643.00
2022-11-04T02:15:02.947Z,99637.13
2022-11-04T02:17:48.526Z,99629.30
2022-11-04T02:20:29.389Z,99622.41
2022-11-04T02:23:40.953Z,99616.20
2022-11-04T02:26:46.361Z,99612.46
2022-11-04T02:29:25.792Z,99608.48
2022-11-04T02:32:23.432Z,99604.99
2022-11-04T02:35:17.277Z,99597.91
2022-11-04T02:38:08.882Z,99596.58
2022-11-04T02:40:51.694Z,99595.09
2022-11-04T02:43:26.340Z,99596.56
2022-11-04T02:46:05.091Z,99591.27
2022-11-04T02:48:46.953Z,99590.33
2022-11-04T02:51:39.397Z,99585.15
2022-11-04T02:54:32.796Z,99583.34
2022-11-04T02:57:03.980Z,99582.41
2022-11-04T02:59:39.441Z,99583.66
2022-11-04T03:02:13.233Z,99582.72
2022-11-04T03:04:46.905Z,99583.50
2022-11-04T03:07:21.472Z,99586.75
2022-11-04T03:09:55.586Z,99587.96
2022-11-04T03:12:29.689Z,99589.77
2022-11-04T03:15:04.826Z,99587.35
2022-11-04T03:17:56.762Z,99586.80
2022-11-04T03:20:28.635Z,99588.05
2022-11-04T03:22:59.461Z,99585.94
2022-11-04T03:25:35.717Z,99589.32
2022-11-04T03:28:21.199Z,99587.04
2022-11-04T03:30:53.926Z,99586.17
2022-11-04T03:33:26.969Z,99586.97
2022-11-04T03:35:54.735Z,99582.77
2022-11-04T03:38:22.814Z,99585.38
2022-11-04T03:40:51.099Z,99587.80
2022-11-04T03:43:27.211Z,99583.13
2022-11-04T03:45:55.138Z,99579.48
2022-11-04T03:48:23.887Z,99578.54
2022-11-04T03:50:51.411Z,99570.76
2022-11-04T03:53:27.296Z,99566.06
2022-11-04T03:56:24.616Z,99566.17
2022-11-04T03:59:03.958Z,99569.16
2022-11-04T04:02:02.462Z,99563.91
2022-11-04T04:04:39.553Z,99564.55
2022-11-04T04:07:17.152Z,99567.42
2022-11-04T04:10:30.066Z,99565.15
2022-11-04T04:13:05.117Z,99557.83
2022-11-04T04:16:07.124Z,99554.05
2022-11-04T04:18:54.030Z,99554.42
2022-11-04T04:21:44.730Z,99554.72
2022-11-04T04:24:35.149Z,99548.27
2022-11-04T04:27:22.155Z,99542.85
2022-11-04T04:29:51.822Z,99542.62
2022-11-04T04:32:23.875Z,99539.38
2022-11-04T04:35:11.751Z,99532.29
2022-11-04T04:37:41.542Z,99530.55
2022-11-04T04:40:34.114Z,99528.89
2022-11-04T04:43:21.697Z,99524.02
2022-11-04T04:45:53.356Z,99522.66
2022-11-04T04:48:20.998Z,99523.30
2022-11-04T04:50:56.256Z,99525.88
2022-11-04T04:53:23.907Z,99528.23
2022-11-04T04:55:51.484Z,99529.83
2022-11-04T04:58:19.120Z,99529.96
2022-11-04T05:00:46.786Z,99527.18
2022-11-04T05:03:14.412Z,99529.11
2022-11-04T05:05:41.899Z,99533.01
2022-11-04T05:08:09.715Z,99532.44
2022-11-04T05:10:37.557Z,99532.20
2022-11-04T05:13:23.738Z,99528.80
2022-11-04T05:15:52.937Z,99524.34
2022-11-04T05:18:20.522Z,99521.73
2022-11-04T05:20:48.154Z,99521.23
2022-11-04T05:23:15.844Z,99516.91
2022-11-04T05:25:43.575Z,99514.33
2022-11-04T05:28:11.521Z,99509.77
2022-11-04T05:30:39.512Z,99505.98
2022-11-04T05:33:07.453Z,99505.05
2022-11-04T05:35:35.477Z,99504.48
2022-11-04T05:38:03.126Z,99504.83
2022-11-04T05:40:30.888Z,99502.27
2022-11-04T05:42:59.939Z,99501.02
2022-11-04T05:45:29.032Z,99500.13
2022-11-04T05:48:04.939Z,99497.05
2022-11-04T05:50:33.959Z,99497.08
2022-11-04T05:53:01.574Z,99502.14
2022-11-04T05:55:31.938Z,99502.02
2022-11-04T05:57:59.524Z,99505.52
2022-11-04T06:00:28.469Z,99505.09
2022-11-04T06:02:58.929Z,99509.60
2022-11-04T06:05:28.098Z,99509.90
2022-11-04T06:07:56.342Z,99510.70
2022-11-04T06:10:25.244Z,99514.73
2022-11-04T06:12:53.636Z,99515.08
2022-11-04T06:15:21.383Z,99512.95
2022-11-04T06:17:49.173Z,99509.64
2022-11-04T06:20:16.905Z,99504.49
2022-11-04T06:22:44.616Z,99501.27
2022-11-04T06:25:12.491Z,99499.06
2022-11-04T06:27:40.824Z,99503.63
2022-11-04T06:30:12.400Z,99506.25
2022-11-04T06:32:42.090Z,99508.99
2022-11-04T06:35:09.885Z,99512.27
2022-11-04T06:37:37.422Z,99512.44
2022-11-04T06:40:06.644Z,99510.09
2022-11-04T06:42:34.274Z,99508.16
2022-11-04T06:45:02.053Z,99509.26
2022-11-04T06:47:29.835Z,99507.81
2022-11-04T06:49:57.689Z,99504.52
2022-11-04T06:52:25.445Z,99506.19
2022-11-04T06:54:53.114Z,99512.23
2022-11-04T06:57:21.083Z,99510.74
2022-11-04T06:59:48.595Z,99514.58
2022-11-04T07:02:16.339Z,99515.05
2022-11-04T07:04:44.142Z,99513.95
2022-11-04T07:07:12.191Z,99514.70
2022-11-04T07:09:41.125Z,99517.58
2022-11-04T07:12:08.945Z,99518.00
2022-11-04T07:14:36.514Z,99519.27
2022-11-04T07:17:04.230Z,99525.75
2022-11-04T07:19:31.825Z,99529.98
2022-11-04T07:21:59.631Z,99533.25
2022-11-04T07:24:27.193Z,99529.02
2022-11-04T07:26:55.843Z,99530.74
2022-11-04T07:29:24.910Z,99528.89
2022-11-04T07:31:52.632Z,99528.35
2022-11-04T07:34:20.466Z,99523.91
2022-11-04T07:36:48.229Z,99523.77
2022-11-04T07:39:15.927Z,99523.91
2022-11-04T07:41:46.767Z,99524.27
2022-11-04T07:44:14.431Z,99519.17
2022-11-04T07:46:42.264Z,99518.83
2022-11-04T07:49:10.688Z,99519.89
2022-11-04T07:51:38.310Z,99515.25
2022-11-04T07:54:06.066Z,99514.79
2022-11-04T07:56:34.740Z,99518.59
2022-11-04T07:59:06.684Z,99520.79
2022-11-04T08:01:34.344Z,99519.52
2022-11-04T08:04:02.291Z,99518.30
2022-11-04T08:06:31.603Z,99521.11
2022-11-04T08:09:00.678Z,99519.98
2022-11-04T08:11:28.476Z,99517.58
2022-11-04T08:14:00.965Z,99510.74
2022-11-04T08:16:36.570Z,99513.14
2022-11-04T08:19:07.176Z,99509.45
2022-11-04T08:21:35.049Z,99510.73
2022-11-04T08:24:03.830Z,99510.78
2022-11-04T08:26:32.039Z,99510.15
2022-11-04T08:29:02.087Z,99506.79
2022-11-04T08:31:37.591Z,99504.59
2022-11-04T08:34:11.441Z,99501.45
2022-11-04T08:36:40.465Z,99499.40
2022-11-04T08:39:13.037Z,99503.77
2022-11-04T08:41:45.119Z,99506.31
2022-11-04T08:44:16.490Z,99506.16
2022-11-04T08:46:46.100Z,99504.20
2022-11-04T08:49:21.103Z,99501.91
2022-11-04T08:51:56.929Z,99502.80
2022-11-04T08:54:26.723Z,99498.50
2022-11-04T08:56:55.554Z,99503.19
2022-11-04T08:59:44.206Z,99505.29
2022-11-04T09:02:33.665Z,99498.99
2022-11-04T09:05:01.682Z,99497.88
2022-11-04T09:07:29.812Z,99494.89
2022-11-04T09:09:57.867Z,99492.89
2022-11-04T09:12:28.171Z,99493.52
2022-11-04T09:14:56.212Z,99493.23
2022-11-04T09:17:24.925Z,99490.80
2022-11-04T09:19:53.213Z,99487.82
2022-11-04T09:22:21.207Z,99482.21
2022-11-04T09:24:51.125Z,99476.98
2022-11-04T09:27:19.507Z,99476.23
2022-11-04T09:29:47.653Z,99474.80
2022-11-04T09:32:15.930Z,99472.02
2022-11-04T09:34:44.528Z,99470.98
2022-11-04T09:37:18.027Z,99470.00
2022-11-04T09:39:51.378Z,99466.89
2022-11-04T09:42:52.792Z,99464.77
2022-11-04T09:45:27.865Z,99460.70
2022-11-04T09:48:08.073Z,99458.27
2022-11-04T09:50:53.830Z,99457.55
2022-11-04T09:53:43.760Z,99455.83
2022-11-04T09:56:25.358Z,99446.48
2022-11-04T09:58:54.109Z,99440.92
2022-11-04T10:01:58.697Z,99437.97
2022-11-04T10:04:37.049Z,99438.94
2022-11-04T10:07:37.237Z,99432.74
2022-11-04T10:10:41.569Z,99425.30
2022-11-04T10:14:03.915Z,99425.17
2022-11-04T10:17:34.106Z,99429.22
2022-11-04T10:20:56.038Z,99424.61
2022-11-04T10:24:15.229Z,99419.22
2022-11-04T10:27:05.168Z,99419.44
2022-11-04T10:29:55.912Z,99421.66
2022-11-04T10:33:15.262Z,99420.61
2022-11-04T10:36:05.882Z,99422.48
2022-11-04T10:39:35.095Z,99425.49
2022-11-04T10:42:51.806Z,99428.14
2022-11-04T10:45:47.754Z,99422.73
2022-11-04T10:48:33.206Z,99421.34
2022-11-04T10:51:23.647Z,99420.29
2022-11-04T10:54:13.791Z,99420.77
2022-11-04T10:57:01.216Z,99420.15
2022-11-04T10:59:58.520Z,99423.07
2022-11-04T11:02:48.689Z,99420.67
2022-11-04T11:05:28.413Z,99415.23
2022-11-04T11:10:13.913Z,99414.33
2022-11-04T11:12:06.927Z,99415.25
2022-11-04T11:15:48.906Z,99409.27
2022-11-04T11:18:28.248Z,99405.85
2022-11-04T11:21:11.528Z,99403.48
2022-11-04T11:23:57.231Z,99400.27
2022-11-04T11:26:41.518Z,99389.93
2022-11-04T11:29:21.378Z,99385.27
2022-11-04T11:32:07.923Z,99378.86
2022-11-04T11:34:38.743Z,99378.64
2022-11-04T11:37:30.464Z,99374.66
2022-11-04T11:40:05.511Z,99372.35
2022-11-04T11:42:56.193Z,99376.84
2022-11-04T11:45:59.224Z,99371.27
2022-11-04T11:49:13.664Z,99373.80
2022-11-04T11:52:05.562Z,99374.23
2022-11-04T11:54:49.737Z,99371.16
2022-11-04T12:46:19.048Z,99359.19
2022-11-04T12:49:44.962Z,99353.13
2022-11-04T13:07:20.477Z,99353.21
2022-11-04T13:33:15.602Z,99346.27
2022-11-04T13:36:26.907Z,99352.33
2022-11-04T13:39:06.133Z,99348.04
2022-11-04T13:41:53.657Z,99345.36
2022-11-04T13:44:52.902Z,99343.78
2022-11-04T13:48:22.429Z,99343.67
2022-11-04T13:51:10.378Z,99342.67
2022-11-04T13:53:58.045Z,99345.13
2022-11-04T13:56:34.305Z,99343.13
2022-11-04T13:59:24.275Z,99347.63
2022-11-04T14:03:04.348Z,99350.89
2022-11-04T14:06:17.615Z,99356.48
2022-11-04T14:10:05.190Z,99354.66
2022-11-04T14:13:35.079Z,99355.31
2022-11-04T14:16:14.013Z,99355.81
2022-11-04T14:18:46.008Z,99355.88
2022-11-04T14:21:23.506Z,99354.95
2022-11-04T14:24:16.249Z,99354.92
2022-11-04T14:26:48.790Z,99355.64
2022-11-04T14:29:18.825Z,99363.13
2022-11-04T14:31:52.625Z,99354.11
2022-11-04T14:34:36.752Z,99360.17
2022-11-04T14:37:27.005Z,99367.13
2022-11-04T14:40:01.743Z,99366.45
2022-11-04T14:42:55.193Z,99373.04
2022-11-04T14:45:27.111Z,99379.55
2022-11-04T14:48:20.575Z,99383.87
2022-11-04T14:50:56.146Z,99381.20
2022-11-04T14:53:38.230Z,99375.52
2022-11-04T14:56:24.359Z,99373.27
2022-11-04T14:59:33.458Z,99376.87
2022-11-04T15:02:56.108Z,99378.14
2022-11-04T15:05:32.168Z,99384.15
2022-11-04T15:08:30.891Z,99382.45
2022-11-04T15:11:17.694Z,99380.79
2022-11-04T15:13:57.969Z,99380.40
2022-11-04T15:16:30.538Z,99379.95
2022-11-04T15:19:00.217Z,99379.41
2022-11-04T15:21:29.514Z,99376.95
2022-11-04T15:24:13.517Z,99377.33
2022-11-04T15:26:43.983Z,99373.63
2022-11-04T15:29:17.313Z,99375.00
2022-11-04T15:32:05.540Z,99374.30
2022-11-04T15:34:36.870Z,99373.06
2022-11-04T15:37:14.283Z,99370.45
2022-11-04T15:39:47.131Z,99363.94
2022-11-04T15:42:46.031Z,99367.20
2022-11-04T15:45:27.494Z,99362.23
2022-11-04T15:48:38.142Z,99364.25
2022-11-04T15:51:25.506Z,99365.15
2022-11-04T15:54:05.502Z,99366.21
2022-11-04T15:56:46.247Z,99366.62
2022-11-04T15:59:20.432Z,99368.56
2022-11-04T16:01:52.839Z,99374.30
2022-11-04T16:04:38.198Z,99377.46
2022-11-04T16:07:10.541Z,99373.69
2022-11-04T16:09:56.564Z,99374.52
2022-11-04T16:12:37.343Z,99381.16
2022-11-04T16:15:27.619Z,99385.46
2022-11-04T16:18:00.463Z,99390.04
2022-11-04T16:20:31.594Z,99388.24
2022-11-04T16:23:03.161Z,99389.17
2022-11-04T16:25:42.548Z,99395.55
2022-11-04T16:28:43.037Z,99397.91
2022-11-04T16:31:41.447Z,99398.20
2022-11-04T16:34:14.354Z,99400.67
2022-11-04T16:36:44.458Z,99397.71
2022-11-04T16:39:16.621Z,99401.25
2022-11-04T16:41:55.257Z,99399.98
2022-11-04T16:47:44.624Z,99399.63
2022-11-04T16:50:30.284Z,99403.27
2022-11-04T16:53:03.990Z,99408.79
2022-11-04T16:55:41.892Z,99412.41
2022-11-04T16:58:18.243Z,99408.09
2022-11-04T17:01:05.128Z,99408.98
2022-11-04T17:03:58.555Z,99407.59
2022-11-04T17:06:27.556Z,99404.02
2022-11-04T17:08:58.846Z,99400.56
2022-11-04T17:11:30.471Z,99398.19
2022-11-04T17:14:34.660Z,99398.90
2022-11-04T17:17:31.858Z,99402.15
2022-11-04T17:20:17.811Z,99402.06
2022-11-04T17:22:51.142Z,99396.10
2022-11-04T17:25:25.807Z,99398.65
2022-11-04T17:27:55.541Z,99400.90
2022-11-04T17:30:25.420Z,99395.67
2022-11-04T17:32:54.417Z,99394.59
2022-11-04T17:35:23.438Z,99390.09
2022-11-04T17:37:54.541Z,99388.13
2022-11-04T17:40:24.313Z,99391.42
2022-11-04T17:43:12.734Z,99397.30
2022-11-04T17:45:43.481Z,99397.05
2022-11-04T17:48:14.404Z,99396.20
2022-11-04T17:50:43.548Z,99398.46
2022-11-04T17:53:22.291Z,99393.59
2022-11-04T17:55:54.131Z,99391.02
2022-11-04T17:58:26.901Z,99386.21
2022-11-04T18:01:06.059Z,99383.64
2022-11-04T18:03:46.421Z,99377.27
2022-11-04T18:06:41.536Z,99375.29
2022-11-04T18:09:24.870Z,99379.58
2022-11-04T18:12:13.758Z,99382.23
2022-11-04T18:14:48.369Z,99375.74
2022-11-04T18:17:18.116Z,99370.77
2022-11-04T18:19:53.673Z,99365.44
2022-11-04T18:22:30.276Z,99361.09
2022-11-04T18:25:07.628Z,99355.63
2022-11-04T18:27:44.544Z,99361.86
2022-11-04T18:30:58.686Z,99362.41
2022-11-04T18:33:38.756Z,99365.54
2022-11-04T18:36:16.021Z,99362.75
2022-11-04T18:39:13.157Z,99361.94
2022-11-04T18:41:46.223Z,99361.53
2022-11-04T18:52:50.705Z,99353.59
2022-11-04T18:55:44.562Z,99355.73
2022-11-04T18:58:18.878Z,99357.59
2022-11-04T19:01:09.132Z,99359.03
2022-11-04T19:03:59.517Z,99356.96
2022-11-04T19:06:43.526Z,99362.30
2022-11-04T19:15:45.316Z,99350.03
2022-11-04T19:19:02.169Z,99348.65
2022-11-04T19:26:37.822Z,99353.98
2022-11-04T19:34:41.728Z,99356.48
2022-11-04T19:37:26.092Z,99352.05
2022-11-04T19:40:12.836Z,99354.14
2022-11-04T19:43:29.610Z,99356.20
2022-11-04T19:46:20.335Z,99355.54
2022-11-04T19:48:55.073Z,99357.30
2022-11-04T19:51:36.742Z,99355.89
2022-11-04T19:54:12.153Z,99354.78
2022-11-04T19:57:11.263Z,99357.94
2022-11-04T19:59:59.911Z,99357.75
2022-11-04T20:02:59.223Z,99362.14
2022-11-04T20:06:28.552Z,99360.23
2022-11-04T20:09:21.479Z,99362.63
2022-11-04T20:12:13.616Z,99364.89
2022-11-04T20:15:03.819Z,99367.02
2022-11-04T20:17:37.756Z,99365.80
2022-11-04T20:20:10.830Z,99364.27
2022-11-04T20:22:41.562Z,99363.76
2022-11-04T20:28:20.923Z,99369.33
2022-11-04T20:30:53.601Z,99371.63
2022-11-04T20:33:29.246Z,99372.89
2022-11-04T20:36:30.619Z,99374.45
2022-11-04T20:39:19.074Z,99372.47
2022-11-04T20:42:01.466Z,99373.85
2022-11-04T20:44:44.583Z,99370.31
2022-11-04T20:47:18.388Z,99381.52
2022-11-04T20:49:53.417Z,99391.98
2022-11-04T20:52:26.726Z,99387.19
2022-11-04T20:54:57.551Z,99394.04
2022-11-04T20:57:28.299Z,99394.41
2022-11-04T21:00:01.578Z,99396.13
2022-11-04T21:02:34.823Z,99389.69
2022-11-04T21:05:19.427Z,99384.35
2022-11-04T21:07:53.432Z,99381.19
2022-11-04T21:10:27.144Z,99385.30
2022-11-04T21:12:57.058Z,99382.95
2022-11-04T21:15:43.362Z,99383.19
2022-11-04T21:18:16.750Z,99385.25
2022-11-04T21:20:46.875Z,99389.63
2022-11-04T21:23:22.762Z,99390.50
2022-11-04T21:26:04.299Z,99393.35
2022-11-04T21:28:34.229Z,99397.20
2022-11-04T21:31:12.682Z,99397.68
2022-11-04T21:33:47.566Z,99396.47
2022-11-04T21:36:34.064Z,99395.95
2022-11-04T21:39:16.265Z,99392.84
2022-11-04T21:42:35.335Z,99387.15
2022-11-04T21:45:31.366Z,99385.48
2022-11-04T21:48:23.513Z,99380.55
2022-11-04T21:51:19.530Z,99381.93
2022-11-04T21:54:04.075Z,99380.84
2022-11-04T21:56:42.192Z,99381.42
2022-11-04T21:59:32.992Z,99375.94
2022-11-04T22:02:16.318Z,99369.27
2022-11-04T22:05:25.262Z,99363.95
2022-11-04T22:08:22.545Z,99364.66
2022-11-04T22:11:06.572Z,99361.97
2022-11-04T22:13:36.668Z,99358.10
2022-11-04T22:16:21.830Z,99356.14
2022-11-04T22:18:58.052Z,99356.89
2022-11-04T22:21:28.160Z,99361.93
2022-11-04T22:23:57.637Z,99354.63
2022-11-04T22:26:32.167Z,99351.59
2022-11-04T22:29:11.350Z,99349.30
2022-11-04T22:31:42.992Z,99347.21
2022-11-04T22:34:12.737Z,99353.75
2022-11-04T22:36:40.806Z,99354.80
2022-11-04T22:39:16.354Z,99350.67
2022-11-04T22:41:48.356Z,99351.81
2022-11-04T22:44:19.954Z,99354.43
2022-11-04T22:46:54.804Z,99358.05
2022-11-04T22:49:30.101Z,99353.13
2022-11-04T22:52:00.849Z,99355.64
2022-11-04T22:54:31.676Z,99356.81
2022-11-04T22:57:01.671Z,99354.90
2022-11-04T22:59:31.639Z,99353.48
2022-11-04T23:02:01.452Z,99351.22
2022-11-04T23:04:30.970Z,99351.73
2022-11-04T23:07:00.471Z,99353.15
2022-11-04T23:09:30.114Z,99346.54
2022-11-04T23:12:18.449Z,99346.42
2022-11-04T23:15:06.659Z,99348.77
2022-11-04T23:17:55.128Z,99349.98
2022-11-04T23:20:31.278Z,99353.23
2022-11-04T23:23:19.427Z,99351.67
2022-11-04T23:25:50.554Z,99350.42
2022-11-04T23:28:39.119Z,99350.13
2022-11-04T23:31:11.655Z,99348.66
2022-11-04T23:34:00.945Z,99342.52
2022-11-04T23:36:55.351Z,99338.42
2022-11-04T23:39:25.061Z,99346.64
2022-11-04T23:42:13.560Z,99352.44
2022-11-04T23:45:02.567Z,99351.91
2022-11-04T23:48:01.143Z,99344.04
2022-11-04T23:50:52.975Z,99336.05
2022-11-04T23:53:41.032Z,99332.08
2022-11-04T23:56:30.906Z,99329.17
2022-11-04T23:59:20.055Z,99330.58
